sensor_id;sensor_type;location;lat;lon;timestamp;P1;durP1;ratioP1;P2;durP2;ratioP2
61336;SDS011;47212;41.326;2.104;2024-02-23T00:03:59;16.33;;;10.95;;
61336;SDS011;47212;41.326;2.104;2024-02-23T00:09:04;19.27;;;8.95;;
61336;SDS011;47212;41.326;2.104;2024-02-23T00:14:23;13.48;;;4.25;;
61336;SDS011;47212;41.326;2.104;2024-02-23T00:19:44;8.30;;;2.25;;
61336;SDS011;47212;41.326;2.104;2024-02-23T00:24:48;6.57;;;2.05;;
61336;SDS011;47212;41.326;2.104;2024-02-23T00:29:50;10.10;;;2.75;;
61336;SDS011;47212;41.326;2.104;2024-02-23T00:39:54;9.52;;;2.55;;
61336;SDS011;47212;41.326;2.104;2024-02-23T00:44:57;10.88;;;2.28;;
61336;SDS011;47212;41.326;2.104;2024-02-23T00:55:02;20.75;;;4.07;;
61336;SDS011;47212;41.326;2.104;2024-02-23T01:00:14;16.45;;;3.25;;
61336;SDS011;47212;41.326;2.104;2024-02-23T01:05:22;23.25;;;3.75;;
61336;SDS011;47212;41.326;2.104;2024-02-23T01:10:34;19.45;;;3.13;;
61336;SDS011;47212;41.326;2.104;2024-02-23T01:15:39;14.52;;;3.05;;
61336;SDS011;47212;41.326;2.104;2024-02-23T01:20:44;13.05;;;2.90;;
61336;SDS011;47212;41.326;2.104;2024-02-23T01:26:00;18.38;;;3.63;;
61336;SDS011;47212;41.326;2.104;2024-02-23T01:31:03;16.52;;;2.60;;
61336;SDS011;47212;41.326;2.104;2024-02-23T01:36:06;14.20;;;3.20;;
61336;SDS011;47212;41.326;2.104;2024-02-23T01:41:09;13.68;;;2.83;;
61336;SDS011;47212;41.326;2.104;2024-02-23T01:46:21;14.18;;;2.65;;
61336;SDS011;47212;41.326;2.104;2024-02-23T01:51:28;6.55;;;1.92;;
61336;SDS011;47212;41.326;2.104;2024-02-23T02:01:34;12.35;;;2.50;;
61336;SDS011;47212;41.326;2.104;2024-02-23T02:06:38;14.60;;;3.55;;
61336;SDS011;47212;41.326;2.104;2024-02-23T02:11:48;12.00;;;2.53;;
61336;SDS011;47212;41.326;2.104;2024-02-23T02:22:29;10.23;;;2.40;;
61336;SDS011;47212;41.326;2.104;2024-02-23T02:27:34;9.70;;;2.45;;
61336;SDS011;47212;41.326;2.104;2024-02-23T02:32:42;6.85;;;1.83;;
61336;SDS011;47212;41.326;2.104;2024-02-23T02:37:48;8.23;;;1.95;;
61336;SDS011;47212;41.326;2.104;2024-02-23T02:42:51;12.23;;;2.80;;
61336;SDS011;47212;41.326;2.104;2024-02-23T02:52:58;21.15;;;3.03;;
61336;SDS011;47212;41.326;2.104;2024-02-23T02:58:01;8.52;;;2.42;;
61336;SDS011;47212;41.326;2.104;2024-02-23T03:03:03;11.43;;;2.55;;
61336;SDS011;47212;41.326;2.104;2024-02-23T03:08:11;9.70;;;2.20;;
61336;SDS011;47212;41.326;2.104;2024-02-23T03:13:13;9.98;;;2.60;;
61336;SDS011;47212;41.326;2.104;2024-02-23T03:23:29;9.25;;;2.55;;
61336;SDS011;47212;41.326;2.104;2024-02-23T03:28:37;10.57;;;2.17;;
61336;SDS011;47212;41.326;2.104;2024-02-23T03:33:50;6.32;;;2.00;;
61336;SDS011;47212;41.326;2.104;2024-02-23T03:38:52;6.53;;;1.90;;
61336;SDS011;47212;41.326;2.104;2024-02-23T03:48:56;5.57;;;1.70;;
61336;SDS011;47212;41.326;2.104;2024-02-23T03:53:59;10.07;;;2.25;;
61336;SDS011;47212;41.326;2.104;2024-02-23T03:59:01;4.35;;;1.60;;
61336;SDS011;47212;41.326;2.104;2024-02-23T04:04:04;3.28;;;1.60;;
61336;SDS011;47212;41.326;2.104;2024-02-23T04:09:07;2.40;;;1.20;;
61336;SDS011;47212;41.326;2.104;2024-02-23T04:14:10;3.35;;;1.48;;
61336;SDS011;47212;41.326;2.104;2024-02-23T04:19:12;2.72;;;1.13;;
61336;SDS011;47212;41.326;2.104;2024-02-23T04:24:15;2.45;;;1.20;;
61336;SDS011;47212;41.326;2.104;2024-02-23T04:29:17;3.00;;;1.10;;
61336;SDS011;47212;41.326;2.104;2024-02-23T04:39:21;2.33;;;1.25;;
61336;SDS011;47212;41.326;2.104;2024-02-23T04:44:24;2.08;;;0.93;;
61336;SDS011;47212;41.326;2.104;2024-02-23T04:54:35;4.05;;;1.42;;
61336;SDS011;47212;41.326;2.104;2024-02-23T04:59:37;7.22;;;1.95;;
61336;SDS011;47212;41.326;2.104;2024-02-23T05:04:41;6.43;;;1.80;;
61336;SDS011;47212;41.326;2.104;2024-02-23T05:09:43;5.03;;;1.75;;
61336;SDS011;47212;41.326;2.104;2024-02-23T05:14:45;4.55;;;1.90;;
61336;SDS011;47212;41.326;2.104;2024-02-23T05:24:51;3.30;;;1.77;;
61336;SDS011;47212;41.326;2.104;2024-02-23T05:29:53;3.40;;;1.20;;
61336;SDS011;47212;41.326;2.104;2024-02-23T05:39:59;5.50;;;2.13;;
61336;SDS011;47212;41.326;2.104;2024-02-23T05:45:02;4.63;;;1.88;;
61336;SDS011;47212;41.326;2.104;2024-02-23T05:50:10;4.00;;;1.58;;
61336;SDS011;47212;41.326;2.104;2024-02-23T05:55:13;6.80;;;1.77;;
61336;SDS011;47212;41.326;2.104;2024-02-23T06:00:16;6.47;;;1.80;;
61336;SDS011;47212;41.326;2.104;2024-02-23T06:05:20;6.47;;;2.20;;
61336;SDS011;47212;41.326;2.104;2024-02-23T06:15:25;3.75;;;1.60;;
61336;SDS011;47212;41.326;2.104;2024-02-23T06:20:27;4.20;;;1.88;;
61336;SDS011;47212;41.326;2.104;2024-02-23T06:25:29;6.25;;;2.08;;
61336;SDS011;47212;41.326;2.104;2024-02-23T06:30:32;6.97;;;2.20;;
61336;SDS011;47212;41.326;2.104;2024-02-23T06:40:37;3.45;;;1.35;;
61336;SDS011;47212;41.326;2.104;2024-02-23T06:45:55;4.38;;;1.83;;
61336;SDS011;47212;41.326;2.104;2024-02-23T06:50:57;6.20;;;2.22;;
61336;SDS011;47212;41.326;2.104;2024-02-23T06:55:59;5.60;;;1.85;;
61336;SDS011;47212;41.326;2.104;2024-02-23T07:01:04;6.40;;;2.20;;
61336;SDS011;47212;41.326;2.104;2024-02-23T07:06:08;3.35;;;1.75;;
61336;SDS011;47212;41.326;2.104;2024-02-23T07:11:12;6.38;;;2.45;;
61336;SDS011;47212;41.326;2.104;2024-02-23T07:16:15;7.28;;;2.20;;
61336;SDS011;47212;41.326;2.104;2024-02-23T07:21:17;5.07;;;2.17;;
61336;SDS011;47212;41.326;2.104;2024-02-23T07:26:20;3.33;;;1.70;;
61336;SDS011;47212;41.326;2.104;2024-02-23T07:31:24;7.43;;;1.77;;
61336;SDS011;47212;41.326;2.104;2024-02-23T07:36:27;3.25;;;1.50;;
61336;SDS011;47212;41.326;2.104;2024-02-23T07:41:29;3.17;;;1.20;;
61336;SDS011;47212;41.326;2.104;2024-02-23T07:51:33;4.90;;;1.27;;
61336;SDS011;47212;41.326;2.104;2024-02-23T07:56:36;4.95;;;1.38;;
61336;SDS011;47212;41.326;2.104;2024-02-23T08:06:41;3.60;;;1.25;;
61336;SDS011;47212;41.326;2.104;2024-02-23T08:11:54;7.43;;;1.45;;
61336;SDS011;47212;41.326;2.104;2024-02-23T08:16:56;6.15;;;1.55;;
61336;SDS011;47212;41.326;2.104;2024-02-23T08:27:01;5.07;;;1.55;;
61336;SDS011;47212;41.326;2.104;2024-02-23T08:32:05;4.35;;;1.75;;
61336;SDS011;47212;41.326;2.104;2024-02-23T08:37:08;5.90;;;1.30;;
61336;SDS011;47212;41.326;2.104;2024-02-23T08:42:10;3.78;;;1.30;;
61336;SDS011;47212;41.326;2.104;2024-02-23T08:52:14;2.85;;;1.45;;
61336;SDS011;47212;41.326;2.104;2024-02-23T08:57:17;4.38;;;1.10;;
61336;SDS011;47212;41.326;2.104;2024-02-23T09:02:21;2.00;;;1.23;;
61336;SDS011;47212;41.326;2.104;2024-02-23T09:07:23;3.00;;;1.42;;
61336;SDS011;47212;41.326;2.104;2024-02-23T09:12:29;3.72;;;1.20;;
61336;SDS011;47212;41.326;2.104;2024-02-23T09:17:31;2.95;;;1.17;;
61336;SDS011;47212;41.326;2.104;2024-02-23T09:22:34;2.72;;;1.58;;
61336;SDS011;47212;41.326;2.104;2024-02-23T09:27:38;3.80;;;1.55;;
61336;SDS011;47212;41.326;2.104;2024-02-23T09:32:45;5.97;;;1.73;;
61336;SDS011;47212;41.326;2.104;2024-02-23T09:37:50;5.15;;;1.48;;
61336;SDS011;47212;41.326;2.104;2024-02-23T09:42:56;4.70;;;1.60;;
61336;SDS011;47212;41.326;2.104;2024-02-23T09:48:01;4.22;;;1.55;;
61336;SDS011;47212;41.326;2.104;2024-02-23T09:53:08;4.57;;;1.60;;
61336;SDS011;47212;41.326;2.104;2024-02-23T09:58:13;3.85;;;1.40;;
61336;SDS011;47212;41.326;2.104;2024-02-23T10:03:19;6.50;;;1.70;;
61336;SDS011;47212;41.326;2.104;2024-02-23T10:08:22;5.22;;;1.75;;
61336;SDS011;47212;41.326;2.104;2024-02-23T10:13:25;3.13;;;1.63;;
61336;SDS011;47212;41.326;2.104;2024-02-23T10:18:28;4.50;;;1.40;;
61336;SDS011;47212;41.326;2.104;2024-02-23T10:23:32;5.40;;;1.38;;
61336;SDS011;47212;41.326;2.104;2024-02-23T10:28:39;5.15;;;1.50;;
61336;SDS011;47212;41.326;2.104;2024-02-23T10:33:41;4.53;;;1.52;;
61336;SDS011;47212;41.326;2.104;2024-02-23T10:38:47;5.20;;;1.75;;
61336;SDS011;47212;41.326;2.104;2024-02-23T10:43:54;4.65;;;1.50;;
61336;SDS011;47212;41.326;2.104;2024-02-23T10:49:01;8.07;;;2.00;;
61336;SDS011;47212;41.326;2.104;2024-02-23T10:54:06;4.05;;;1.42;;
61336;SDS011;47212;41.326;2.104;2024-02-23T10:59:10;3.03;;;1.60;;
61336;SDS011;47212;41.326;2.104;2024-02-23T11:04:12;4.70;;;1.83;;
61336;SDS011;47212;41.326;2.104;2024-02-23T11:09:15;4.97;;;1.60;;
61336;SDS011;47212;41.326;2.104;2024-02-23T11:14:18;4.72;;;1.85;;
61336;SDS011;47212;41.326;2.104;2024-02-23T11:19:34;3.78;;;1.30;;
61336;SDS011;47212;41.326;2.104;2024-02-23T11:24:42;4.95;;;1.80;;
61336;SDS011;47212;41.326;2.104;2024-02-23T11:29:52;3.42;;;1.70;;
61336;SDS011;47212;41.326;2.104;2024-02-23T11:35:08;3.30;;;1.40;;
61336;SDS011;47212;41.326;2.104;2024-02-23T11:40:12;2.28;;;1.30;;
61336;SDS011;47212;41.326;2.104;2024-02-23T11:45:15;2.90;;;1.23;;
61336;SDS011;47212;41.326;2.104;2024-02-23T11:50:18;2.53;;;1.33;;
61336;SDS011;47212;41.326;2.104;2024-02-23T11:55:23;2.65;;;1.42;;
61336;SDS011;47212;41.326;2.104;2024-02-23T12:00:25;4.93;;;1.65;;
61336;SDS011;47212;41.326;2.104;2024-02-23T12:05:28;2.38;;;1.13;;
61336;SDS011;47212;41.326;2.104;2024-02-23T12:10:30;5.35;;;2.05;;
61336;SDS011;47212;41.326;2.104;2024-02-23T12:15:33;6.65;;;1.42;;
61336;SDS011;47212;41.326;2.104;2024-02-23T12:20:35;4.32;;;1.55;;
61336;SDS011;47212;41.326;2.104;2024-02-23T12:25:38;2.85;;;1.70;;
61336;SDS011;47212;41.326;2.104;2024-02-23T12:30:43;3.70;;;1.45;;
61336;SDS011;47212;41.326;2.104;2024-02-23T12:35:51;2.30;;;1.50;;
61336;SDS011;47212;41.326;2.104;2024-02-23T12:40:56;4.50;;;1.50;;
61336;SDS011;47212;41.326;2.104;2024-02-23T12:45:58;1.65;;;1.25;;
61336;SDS011;47212;41.326;2.104;2024-02-23T12:51:03;3.42;;;1.48;;
61336;SDS011;47212;41.326;2.104;2024-02-23T12:56:06;2.38;;;1.23;;
61336;SDS011;47212;41.326;2.104;2024-02-23T13:01:10;4.40;;;1.13;;
61336;SDS011;47212;41.326;2.104;2024-02-23T13:06:13;4.03;;;1.30;;
61336;SDS011;47212;41.326;2.104;2024-02-23T13:11:15;4.82;;;1.33;;
61336;SDS011;47212;41.326;2.104;2024-02-23T13:16:18;2.50;;;1.20;;
61336;SDS011;47212;41.326;2.104;2024-02-23T13:21:21;2.95;;;1.00;;
61336;SDS011;47212;41.326;2.104;2024-02-23T13:26:23;3.85;;;1.00;;
61336;SDS011;47212;41.326;2.104;2024-02-23T13:31:25;2.13;;;0.90;;
61336;SDS011;47212;41.326;2.104;2024-02-23T13:36:28;2.22;;;1.08;;
61336;SDS011;47212;41.326;2.104;2024-02-23T13:41:30;5.00;;;1.45;;
61336;SDS011;47212;41.326;2.104;2024-02-23T13:46:35;2.55;;;1.33;;
61336;SDS011;47212;41.326;2.104;2024-02-23T13:51:42;1.33;;;0.88;;
61336;SDS011;47212;41.326;2.104;2024-02-23T13:56:44;3.20;;;1.13;;
61336;SDS011;47212;41.326;2.104;2024-02-23T14:01:47;3.35;;;1.48;;
61336;SDS011;47212;41.326;2.104;2024-02-23T14:06:49;2.15;;;1.20;;
61336;SDS011;47212;41.326;2.104;2024-02-23T14:11:52;0.85;;;0.80;;
61336;SDS011;47212;41.326;2.104;2024-02-23T14:16:55;5.03;;;1.08;;
61336;SDS011;47212;41.326;2.104;2024-02-23T14:21:58;1.52;;;1.02;;
61336;SDS011;47212;41.326;2.104;2024-02-23T14:27:01;3.33;;;1.60;;
61336;SDS011;47212;41.326;2.104;2024-02-23T14:32:03;4.72;;;1.20;;
61336;SDS011;47212;41.326;2.104;2024-02-23T14:37:06;1.40;;;0.90;;
61336;SDS011;47212;41.326;2.104;2024-02-23T14:42:08;9.32;;;1.33;;
61336;SDS011;47212;41.326;2.104;2024-02-23T14:47:11;4.47;;;1.00;;
61336;SDS011;47212;41.326;2.104;2024-02-23T14:52:15;2.80;;;1.17;;
61336;SDS011;47212;41.326;2.104;2024-02-23T14:57:17;2.75;;;0.85;;
61336;SDS011;47212;41.326;2.104;2024-02-23T15:02:20;2.17;;;0.85;;
61336;SDS011;47212;41.326;2.104;2024-02-23T15:07:23;1.92;;;0.98;;
61336;SDS011;47212;41.326;2.104;2024-02-23T15:12:26;0.93;;;0.80;;
61336;SDS011;47212;41.326;2.104;2024-02-23T15:17:30;5.97;;;1.13;;
61336;SDS011;47212;41.326;2.104;2024-02-23T15:22:33;2.58;;;0.82;;
61336;SDS011;47212;41.326;2.104;2024-02-23T15:27:35;4.13;;;1.00;;
61336;SDS011;47212;41.326;2.104;2024-02-23T15:32:40;10.70;;;1.35;;
61336;SDS011;47212;41.326;2.104;2024-02-23T15:37:43;1.13;;;0.80;;
61336;SDS011;47212;41.326;2.104;2024-02-23T15:42:45;6.05;;;1.20;;
61336;SDS011;47212;41.326;2.104;2024-02-23T15:47:48;2.28;;;0.73;;
61336;SDS011;47212;41.326;2.104;2024-02-23T15:52:50;2.20;;;1.00;;
61336;SDS011;47212;41.326;2.104;2024-02-23T15:57:53;2.50;;;1.00;;
61336;SDS011;47212;41.326;2.104;2024-02-23T16:02:55;1.27;;;0.70;;
61336;SDS011;47212;41.326;2.104;2024-02-23T16:07:57;5.55;;;1.00;;
61336;SDS011;47212;41.326;2.104;2024-02-23T16:13:05;1.60;;;0.90;;
61336;SDS011;47212;41.326;2.104;2024-02-23T16:18:13;5.25;;;0.85;;
61336;SDS011;47212;41.326;2.104;2024-02-23T16:23:18;2.50;;;1.02;;
61336;SDS011;47212;41.326;2.104;2024-02-23T16:28:21;2.95;;;0.90;;
61336;SDS011;47212;41.326;2.104;2024-02-23T16:33:23;2.83;;;0.98;;
61336;SDS011;47212;41.326;2.104;2024-02-23T16:38:26;1.15;;;0.90;;
61336;SDS011;47212;41.326;2.104;2024-02-23T16:43:28;2.50;;;1.02;;
61336;SDS011;47212;41.326;2.104;2024-02-23T16:48:31;1.85;;;0.80;;
61336;SDS011;47212;41.326;2.104;2024-02-23T16:53:33;3.53;;;0.82;;
61336;SDS011;47212;41.326;2.104;2024-02-23T16:58:36;3.63;;;1.10;;
61336;SDS011;47212;41.326;2.104;2024-02-23T17:03:38;3.70;;;0.88;;
61336;SDS011;47212;41.326;2.104;2024-02-23T17:08:41;3.75;;;1.10;;
61336;SDS011;47212;41.326;2.104;2024-02-23T17:13:44;2.60;;;1.08;;
61336;SDS011;47212;41.326;2.104;2024-02-23T17:18:46;1.85;;;1.00;;
61336;SDS011;47212;41.326;2.104;2024-02-23T17:23:49;5.40;;;1.10;;
61336;SDS011;47212;41.326;2.104;2024-02-23T17:28:52;1.63;;;1.00;;
61336;SDS011;47212;41.326;2.104;2024-02-23T17:33:54;3.67;;;0.98;;
61336;SDS011;47212;41.326;2.104;2024-02-23T17:39:00;1.00;;;0.85;;
61336;SDS011;47212;41.326;2.104;2024-02-23T17:44:02;1.42;;;1.05;;
61336;SDS011;47212;41.326;2.104;2024-02-23T17:49:10;2.13;;;1.00;;
61336;SDS011;47212;41.326;2.104;2024-02-23T17:54:15;1.13;;;0.95;;
61336;SDS011;47212;41.326;2.104;2024-02-23T17:59:17;1.27;;;0.88;;
61336;SDS011;47212;41.326;2.104;2024-02-23T18:04:22;2.00;;;1.10;;
61336;SDS011;47212;41.326;2.104;2024-02-23T18:09:25;0.85;;;0.82;;
61336;SDS011;47212;41.326;2.104;2024-02-23T18:14:27;1.63;;;1.00;;
61336;SDS011;47212;41.326;2.104;2024-02-23T18:19:31;1.48;;;0.90;;
61336;SDS011;47212;41.326;2.104;2024-02-23T18:24:33;2.17;;;0.80;;
61336;SDS011;47212;41.326;2.104;2024-02-23T18:29:36;5.63;;;1.23;;
61336;SDS011;47212;41.326;2.104;2024-02-23T18:34:38;0.98;;;0.88;;
61336;SDS011;47212;41.326;2.104;2024-02-23T18:39:40;1.25;;;0.88;;
61336;SDS011;47212;41.326;2.104;2024-02-23T18:44:43;1.75;;;1.25;;
61336;SDS011;47212;41.326;2.104;2024-02-23T18:54:47;1.30;;;1.00;;
61336;SDS011;47212;41.326;2.104;2024-02-23T18:59:51;2.95;;;0.95;;
61336;SDS011;47212;41.326;2.104;2024-02-23T19:04:53;2.33;;;1.13;;
61336;SDS011;47212;41.326;2.104;2024-02-23T19:09:55;0.90;;;0.90;;
61336;SDS011;47212;41.326;2.104;2024-02-23T19:14:57;1.48;;;1.05;;
61336;SDS011;47212;41.326;2.104;2024-02-23T19:20:01;1.90;;;1.33;;
61336;SDS011;47212;41.326;2.104;2024-02-23T19:25:04;1.65;;;1.08;;
61336;SDS011;47212;41.326;2.104;2024-02-23T19:30:12;2.78;;;1.52;;
61336;SDS011;47212;41.326;2.104;2024-02-23T19:35:17;1.65;;;1.00;;
61336;SDS011;47212;41.326;2.104;2024-02-23T19:40:23;2.47;;;1.10;;
61336;SDS011;47212;41.326;2.104;2024-02-23T19:45:26;2.70;;;1.20;;
61336;SDS011;47212;41.326;2.104;2024-02-23T19:50:29;3.92;;;1.50;;
61336;SDS011;47212;41.326;2.104;2024-02-23T19:55:31;1.73;;;1.23;;
61336;SDS011;47212;41.326;2.104;2024-02-23T20:00:34;2.58;;;1.10;;
61336;SDS011;47212;41.326;2.104;2024-02-23T20:05:37;3.15;;;1.35;;
61336;SDS011;47212;41.326;2.104;2024-02-23T20:10:39;3.50;;;1.45;;
61336;SDS011;47212;41.326;2.104;2024-02-23T20:15:42;2.08;;;1.17;;
61336;SDS011;47212;41.326;2.104;2024-02-23T20:20:44;2.88;;;1.50;;
61336;SDS011;47212;41.326;2.104;2024-02-23T20:25:47;1.75;;;1.15;;
61336;SDS011;47212;41.326;2.104;2024-02-23T20:30:49;3.30;;;1.42;;
61336;SDS011;47212;41.326;2.104;2024-02-23T20:35:54;3.55;;;1.60;;
61336;SDS011;47212;41.326;2.104;2024-02-23T20:40:57;3.10;;;1.52;;
61336;SDS011;47212;41.326;2.104;2024-02-23T20:45:59;2.95;;;2.08;;
61336;SDS011;47212;41.326;2.104;2024-02-23T20:51:02;5.55;;;2.60;;
61336;SDS011;47212;41.326;2.104;2024-02-23T20:56:06;3.88;;;2.10;;
61336;SDS011;47212;41.326;2.104;2024-02-23T21:01:11;4.30;;;2.30;;
61336;SDS011;47212;41.326;2.104;2024-02-23T21:06:13;3.05;;;1.88;;
61336;SDS011;47212;41.326;2.104;2024-02-23T21:11:16;3.08;;;1.90;;
61336;SDS011;47212;41.326;2.104;2024-02-23T21:16:18;2.35;;;1.48;;
61336;SDS011;47212;41.326;2.104;2024-02-23T21:26:22;3.17;;;1.67;;
61336;SDS011;47212;41.326;2.104;2024-02-23T21:36:27;2.15;;;1.15;;
61336;SDS011;47212;41.326;2.104;2024-02-23T21:41:29;1.83;;;1.42;;
61336;SDS011;47212;41.326;2.104;2024-02-23T21:46:31;2.53;;;1.60;;
61336;SDS011;47212;41.326;2.104;2024-02-23T21:56:36;3.35;;;1.85;;
61336;SDS011;47212;41.326;2.104;2024-02-23T22:01:39;3.47;;;1.90;;
61336;SDS011;47212;41.326;2.104;2024-02-23T22:06:41;4.82;;;2.10;;
61336;SDS011;47212;41.326;2.104;2024-02-23T22:11:43;3.53;;;1.63;;
61336;SDS011;47212;41.326;2.104;2024-02-23T22:16:46;2.90;;;1.75;;
61336;SDS011;47212;41.326;2.104;2024-02-23T22:21:48;3.00;;;1.77;;
61336;SDS011;47212;41.326;2.104;2024-02-23T22:26:51;2.60;;;1.70;;
61336;SDS011;47212;41.326;2.104;2024-02-23T22:31:56;2.65;;;1.60;;
61336;SDS011;47212;41.326;2.104;2024-02-23T22:37:00;1.60;;;1.17;;
61336;SDS011;47212;41.326;2.104;2024-02-23T22:42:02;2.15;;;1.50;;
61336;SDS011;47212;41.326;2.104;2024-02-23T22:47:06;2.13;;;1.33;;
61336;SDS011;47212;41.326;2.104;2024-02-23T22:52:09;2.05;;;1.52;;
61336;SDS011;47212;41.326;2.104;2024-02-23T22:57:12;2.20;;;1.58;;
61336;SDS011;47212;41.326;2.104;2024-02-23T23:02:14;1.88;;;1.35;;
61336;SDS011;47212;41.326;2.104;2024-02-23T23:07:17;3.78;;;1.48;;
61336;SDS011;47212;41.326;2.104;2024-02-23T23:12:19;2.80;;;1.60;;
61336;SDS011;47212;41.326;2.104;2024-02-23T23:17:22;4.32;;;1.65;;
61336;SDS011;47212;41.326;2.104;2024-02-23T23:27:26;4.28;;;2.20;;
61336;SDS011;47212;41.326;2.104;2024-02-23T23:32:28;4.43;;;2.28;;
61336;SDS011;47212;41.326;2.104;2024-02-23T23:37:30;4.35;;;1.90;;
61336;SDS011;47212;41.326;2.104;2024-02-23T23:42:33;5.78;;;2.22;;
61336;SDS011;47212;41.326;2.104;2024-02-23T23:52:37;2.97;;;2.00;;
